Time;durP1;ratioP1;P1;durP2;ratioP2;P2;SDS_P1;SDS_P2;PMS_P1;PMS_P2;Temp;Humidity;BMP_temperature;BMP_pressure;BME280_temperature;BME280_humidity;BME280_pressure;Samples;Min_cycle;Max_cycle;Signal;HPM_P1;HPM_P2
2024/04/21 00:02:19;;;;;;;2.57;2.10;;;13.60;49.90;;;;;;5395191;26;20254;-59
2024/04/21 00:04:44;;;;;;;2.60;2.40;;;13.50;51.90;;;;;;5396089;26;20237;-59
2024/04/21 00:07:10;;;;;;;3.37;2.70;;;13.60;52.50;;;;;;5394527;26;20250;-57
2024/04/21 00:09:35;;;;;;;5.40;2.60;;;13.70;53.20;;;;;;5395563;26;20416;-59
2024/04/21 00:12:01;;;;;;;2.73;2.50;;;13.90;52.30;;;;;;5391366;26;20339;-59
2024/04/21 00:14:26;;;;;;;3.10;2.80;;;13.90;52.00;;;;;;5402514;26;20245;-58
2024/04/21 00:16:52;;;;;;;3.30;3.00;;;13.90;51.80;;;;;;5400493;26;20245;-58
2024/04/21 00:19:18;;;;;;;3.00;2.70;;;13.90;50.80;;;;;;5402504;26;20733;-60
2024/04/21 00:21:43;;;;;;;3.57;2.30;;;13.80;50.50;;;;;;5402013;26;20241;-60
2024/04/21 00:24:09;;;;;;;3.50;2.67;;;13.80;51.30;;;;;;5395695;26;20249;-57
2024/04/21 00:26:34;;;;;;;2.40;2.20;;;13.80;51.20;;;;;;5396824;26;20246;-57
2024/04/21 00:29:00;;;;;;;2.83;2.63;;;13.80;51.40;;;;;;5402468;26;20237;-57
2024/04/21 00:31:25;;;;;;;2.83;2.17;;;13.80;51.30;;;;;;5396385;26;20253;-57
2024/04/21 00:33:51;;;;;;;3.10;2.90;;;13.80;50.50;;;;;;5402864;26;20729;-58
2024/04/21 00:36:16;;;;;;;3.07;2.77;;;13.70;50.30;;;;;;5409081;26;20715;-59
2024/04/21 00:38:42;;;;;;;2.97;2.70;;;13.60;50.60;;;;;;5406976;26;21002;-59
2024/04/21 00:41:08;;;;;;;2.73;2.57;;;13.50;51.30;;;;;;5401133;26;20234;-59
2024/04/21 00:43:33;;;;;;;3.17;2.87;;;13.50;51.20;;;;;;5403425;26;20780;-57
2024/04/21 00:45:59;;;;;;;2.50;2.30;;;13.50;51.00;;;;;;5411506;26;20246;-58
2024/04/21 00:48:25;;;;;;;3.50;2.97;;;13.60;51.10;;;;;;5402240;26;20285;-58
2024/04/21 00:50:53;;;;;;;2.90;2.70;;;13.60;51.30;;;;;;5412307;26;20280;-57
2024/04/21 00:53:21;;;;;;;2.80;2.60;;;13.70;52.00;;;;;;5403731;26;20471;-57
2024/04/21 00:55:47;;;;;;;4.30;2.83;;;13.80;51.30;;;;;;5413422;26;20475;-59
2024/04/21 00:58:14;;;;;;;3.20;2.90;;;13.70;50.90;;;;;;5404996;26;21061;-60
2024/04/21 01:00:41;;;;;;;4.83;4.40;;;13.70;50.80;;;;;;5399019;26;20288;-59
2024/04/21 01:03:07;;;;;;;2.87;2.53;;;13.60;50.90;;;;;;5397651;26;20479;-59
2024/04/21 01:05:33;;;;;;;2.73;2.50;;;13.70;52.10;;;;;;5396392;26;20475;-59
2024/04/21 01:07:59;;;;;;;2.60;2.40;;;13.70;52.30;;;;;;5396420;26;20531;-59
2024/04/21 01:10:25;;;;;;;2.53;2.33;;;13.80;51.40;;;;;;5399446;26;20527;-59
2024/04/21 01:12:50;;;;;;;3.10;2.80;;;13.70;51.80;;;;;;5398317;26;20836;-59
2024/04/21 01:15:16;;;;;;;2.73;2.40;;;13.90;51.80;;;;;;5404132;26;20238;-59
2024/04/21 01:17:41;;;;;;;2.50;2.30;;;13.90;50.90;;;;;;5398290;26;20744;-59
2024/04/21 01:20:10;;;;;;;2.37;2.17;;;14.00;50.60;;;;;;5397609;26;20237;-57
2024/04/21 01:22:44;;;;;;;2.50;2.30;;;14.20;50.40;;;;;;5395622;26;20277;-58
2024/04/21 01:25:10;;;;;;;2.60;2.40;;;14.30;50.30;;;;;;5398279;26;20474;-58
2024/04/21 01:27:35;;;;;;;2.50;2.30;;;14.40;50.50;;;;;;5398767;26;20558;-59
2024/04/21 01:30:01;;;;;;;2.20;2.00;;;14.50;50.20;;;;;;5397333;26;20234;-60
2024/04/21 01:32:26;;;;;;;2.27;2.07;;;14.50;49.90;;;;;;5400225;26;20237;-59
2024/04/21 01:34:52;;;;;;;2.20;1.90;;;14.60;50.60;;;;;;5399188;26;20592;-60
2024/04/21 01:37:18;;;;;;;2.17;2.07;;;14.70;50.50;;;;;;5396857;26;20250;-58
2024/04/21 01:39:43;;;;;;;2.40;2.20;;;14.70;50.00;;;;;;5403632;26;20245;-58
2024/04/21 01:42:09;;;;;;;5.00;2.50;;;14.80;49.50;;;;;;5399663;26;20239;-57
2024/04/21 01:44:35;;;;;;;1.93;1.80;;;14.80;49.60;;;;;;5405534;26;20365;-60
2024/04/21 01:47:01;;;;;;;2.27;2.10;;;14.80;49.30;;;;;;5400804;26;20288;-57
2024/04/21 01:49:27;;;;;;;2.80;2.30;;;14.70;49.20;;;;;;5406950;26;20471;-59
2024/04/21 01:51:53;;;;;;;2.80;1.93;;;14.70;49.10;;;;;;5397051;26;20234;-59
2024/04/21 01:54:18;;;;;;;2.33;2.13;;;14.70;49.10;;;;;;5396887;26;20499;-59
2024/04/21 01:56:44;;;;;;;1.93;1.70;;;14.80;49.50;;;;;;5393112;26;20291;-59
2024/04/21 01:59:09;;;;;;;2.00;1.90;;;14.90;49.30;;;;;;5397664;26;20334;-60
2024/04/21 02:01:35;;;;;;;3.10;2.23;;;14.80;49.20;;;;;;5402002;26;20284;-57
2024/04/21 02:04:00;;;;;;;2.30;1.87;;;14.80;49.00;;;;;;5398994;26;20842;-57
2024/04/21 02:06:26;;;;;;;2.30;2.10;;;14.70;49.10;;;;;;5395799;26;20579;-59
2024/04/21 02:08:51;;;;;;;1.93;1.70;;;14.70;49.40;;;;;;5402680;26;20237;-60
2024/04/21 02:11:18;;;;;;;2.70;1.90;;;14.80;49.50;;;;;;5403174;26;20966;-59
2024/04/21 02:13:43;;;;;;;2.00;1.70;;;14.80;49.50;;;;;;5396919;26;20238;-59
2024/04/21 02:16:09;;;;;;;1.73;1.37;;;14.70;49.10;;;;;;5394721;26;20472;-60
2024/04/21 02:18:34;;;;;;;1.20;1.10;;;14.60;49.70;;;;;;5408142;26;20245;-59
2024/04/21 02:21:00;;;;;;;1.00;0.90;;;14.40;50.30;;;;;;5394107;26;20646;-60
2024/04/21 02:23:25;;;;;;;1.27;1.17;;;14.20;49.70;;;;;;5402150;26;20233;-59
2024/04/21 02:25:58;;;;;;;0.80;0.80;;;14.10;50.20;;;;;;5403541;26;20280;-57
2024/04/21 02:28:24;;;;;;;1.73;0.90;;;14.00;50.60;;;;;;5405076;26;20241;-57
2024/04/21 02:30:49;;;;;;;1.10;1.00;;;13.90;50.70;;;;;;5402790;26;20822;-60
2024/04/21 02:33:15;;;;;;;1.00;0.90;;;13.80;51.10;;;;;;5395454;26;20287;-57
2024/04/21 02:35:41;;;;;;;1.10;1.10;;;13.70;51.30;;;;;;5398462;26;20591;-58
2024/04/21 02:38:07;;;;;;;1.23;1.13;;;13.70;51.80;;;;;;5398829;26;20280;-59
2024/04/21 02:40:33;;;;;;;2.83;1.40;;;13.80;52.00;;;;;;5398098;26;20803;-60
2024/04/21 02:42:58;;;;;;;0.80;0.80;;;13.80;52.00;;;;;;5399895;26;20463;-59
2024/04/21 02:45:24;;;;;;;1.80;1.40;;;13.70;52.20;;;;;;5403097;26;20788;-60
2024/04/21 02:47:49;;;;;;;2.83;1.50;;;13.40;52.40;;;;;;5401178;26;20237;-60
2024/04/21 02:50:15;;;;;;;4.70;1.77;;;13.00;53.30;;;;;;5396404;26;20595;-59
2024/04/21 02:52:40;;;;;;;1.90;1.40;;;12.70;54.30;;;;;;5401606;26;20642;-60
2024/04/21 02:55:06;;;;;;;1.80;1.40;;;12.80;54.70;;;;;;5403849;26;20233;-58
2024/04/21 02:57:33;;;;;;;1.77;1.63;;;12.80;54.80;;;;;;5404650;26;20241;-60
2024/04/21 02:59:59;;;;;;;1.93;1.20;;;12.80;55.00;;;;;;5400131;26;20782;-60
2024/04/21 03:02:24;;;;;;;1.73;1.43;;;12.90;55.20;;;;;;5402628;26;20463;-58
2024/04/21 03:04:50;;;;;;;3.50;1.80;;;12.80;55.50;;;;;;5399368;26;20859;-59
2024/04/21 03:07:16;;;;;;;1.70;1.60;;;12.40;55.80;;;;;;5400733;26;20341;-60
2024/04/21 03:09:42;;;;;;;1.60;1.50;;;11.50;56.90;;;;;;5397823;26;20800;-60
2024/04/21 03:12:08;;;;;;;4.33;1.80;;;10.90;57.90;;;;;;5400340;26;20479;-60
2024/04/21 03:14:34;;;;;;;2.20;2.00;;;10.70;59.00;;;;;;5405800;26;20284;-60
2024/04/21 03:16:59;;;;;;;2.40;2.17;;;10.70;59.60;;;;;;5401701;26;20475;-59
2024/04/21 03:19:25;;;;;;;3.20;2.50;;;10.80;59.50;;;;;;5396967;26;20317;-60
2024/04/21 03:21:51;;;;;;;2.37;2.17;;;11.00;59.30;;;;;;5392300;26;20241;-59
2024/04/21 03:24:16;;;;;;;3.83;2.53;;;11.10;59.00;;;;;;5400439;26;20779;-59
2024/04/21 03:26:42;;;;;;;3.10;2.33;;;11.20;58.90;;;;;;5405713;26;20241;-61
2024/04/21 03:29:08;;;;;;;1.83;1.73;;;11.20;58.50;;;;;;5403929;26;20764;-59
2024/04/21 03:31:33;;;;;;;2.30;2.20;;;10.90;58.60;;;;;;5399938;26;20613;-59
2024/04/21 03:33:59;;;;;;;2.30;2.20;;;10.50;59.00;;;;;;5399656;26;20763;-60
2024/04/21 03:36:25;;;;;;;3.87;2.00;;;10.50;59.80;;;;;;5393460;26;20756;-58
2024/04/21 03:38:50;;;;;;;2.83;2.20;;;10.40;60.30;;;;;;5401510;26;20245;-60
2024/04/21 03:41:16;;;;;;;2.13;1.93;;;10.60;60.10;;;;;;5399567;26;20250;-60
2024/04/21 03:43:43;;;;;;;2.53;2.20;;;10.70;60.00;;;;;;5390194;26;20238;-60
2024/04/21 03:46:09;;;;;;;2.50;2.30;;;10.80;59.60;;;;;;5406901;26;20475;-60
2024/04/21 03:48:35;;;;;;;2.43;2.33;;;10.90;59.40;;;;;;5403122;26;20475;-59
2024/04/21 03:51:01;;;;;;;2.60;2.40;;;10.80;59.80;;;;;;5401226;26;20296;-60
2024/04/21 03:53:26;;;;;;;2.23;2.13;;;10.80;59.80;;;;;;5398033;26;20475;-60
2024/04/21 03:55:52;;;;;;;3.13;2.70;;;10.80;59.80;;;;;;5399080;26;20788;-59
2024/04/21 03:58:17;;;;;;;2.50;2.30;;;10.90;59.80;;;;;;5394759;26;20241;-60
2024/04/21 04:00:45;;;;;;;2.60;2.50;;;10.90;59.70;;;;;;5397684;26;20238;-60
2024/04/21 04:03:10;;;;;;;2.40;2.03;;;10.80;59.70;;;;;;5393180;26;20281;-60
2024/04/21 04:05:36;;;;;;;3.57;2.43;;;10.80;60.20;;;;;;5400244;26;20508;-59
2024/04/21 04:08:02;;;;;;;3.63;3.20;;;10.70;60.40;;;;;;5396674;26;20253;-59
2024/04/21 04:10:27;;;;;;;2.90;2.40;;;10.60;60.80;;;;;;5399806;26;20790;-60
2024/04/21 04:12:53;;;;;;;3.83;2.60;;;10.60;60.80;;;;;;5400459;26;20280;-59
2024/04/21 04:15:18;;;;;;;2.70;2.50;;;10.60;61.00;;;;;;5403392;26;20260;-61
2024/04/21 04:17:44;;;;;;;2.50;2.30;;;10.60;61.60;;;;;;5399848;26;20249;-60
2024/04/21 04:20:10;;;;;;;5.60;2.37;;;10.50;61.70;;;;;;5398417;26;20896;-60
2024/04/21 04:22:39;;;;;;;2.47;2.37;;;10.30;62.30;;;;;;5401915;26;20245;-59
2024/04/21 04:25:05;;;;;;;3.63;2.60;;;10.30;62.40;;;;;;5396932;26;20279;-59
2024/04/21 04:27:31;;;;;;;5.20;2.50;;;10.40;62.80;;;;;;5398902;26;21155;-57
2024/04/21 04:29:57;;;;;;;3.80;2.67;;;10.40;62.50;;;;;;5408180;26;20924;-60
2024/04/21 04:32:22;;;;;;;2.60;2.40;;;10.10;63.30;;;;;;5409802;26;20514;-60
2024/04/21 04:34:48;;;;;;;2.80;2.13;;;10.00;64.10;;;;;;5410204;26;20515;-60
2024/04/21 04:37:14;;;;;;;2.80;2.43;;;9.70;65.80;;;;;;5398398;26;20230;-60
2024/04/21 04:39:40;;;;;;;2.90;2.10;;;9.50;66.00;;;;;;5400606;26;20511;-60
2024/04/21 04:42:06;;;;;;;2.10;2.00;;;9.40;66.50;;;;;;5402066;26;20468;-61
2024/04/21 04:44:32;;;;;;;1.80;1.70;;;9.40;67.10;;;;;;5411250;26;20826;-60
2024/04/21 04:46:57;;;;;;;2.47;2.27;;;9.40;66.70;;;;;;5405234;26;20245;-60
2024/04/21 04:49:23;;;;;;;3.43;1.93;;;9.40;66.90;;;;;;5412584;26;20293;-60
2024/04/21 04:51:48;;;;;;;2.47;2.27;;;9.60;67.00;;;;;;5396309;26;20413;-60
2024/04/21 04:54:14;;;;;;;3.97;2.50;;;9.50;67.00;;;;;;5406363;26;20245;-59
2024/04/21 04:56:39;;;;;;;2.60;2.13;;;9.60;67.30;;;;;;5404233;26;20230;-60
2024/04/21 04:59:06;;;;;;;2.20;1.97;;;9.60;67.30;;;;;;5402298;26;20276;-60
2024/04/21 05:01:32;;;;;;;2.10;1.90;;;9.80;67.10;;;;;;5402393;26;20877;-60
2024/04/21 05:03:57;;;;;;;2.27;2.10;;;9.80;67.00;;;;;;5403695;26;20471;-59
2024/04/21 05:06:23;;;;;;;2.17;1.90;;;9.80;66.90;;;;;;5359201;26;1016645;-59
2024/04/21 05:08:49;;;;;;;1.97;1.80;;;10.00;65.40;;;;;;5403573;26;20292;-60
2024/04/21 05:11:14;;;;;;;2.43;1.20;;;10.10;64.80;;;;;;5401558;26;20242;-60
2024/04/21 05:13:40;;;;;;;1.40;1.30;;;10.10;64.40;;;;;;5400742;26;20339;-60
2024/04/21 05:16:06;;;;;;;3.00;1.37;;;10.00;64.30;;;;;;5398511;26;20733;-60
2024/04/21 05:18:31;;;;;;;1.70;1.50;;;9.70;65.20;;;;;;5391596;26;20819;-61
2024/04/21 05:20:57;;;;;;;1.63;1.53;;;9.50;66.70;;;;;;5401020;26;20304;-59
2024/04/21 05:23:22;;;;;;;1.43;1.30;;;9.60;66.90;;;;;;5398180;26;20598;-58
2024/04/21 05:25:49;;;;;;;2.73;1.30;;;9.90;66.60;;;;;;5402110;26;20343;-60
2024/04/21 05:28:15;;;;;;;1.60;1.13;;;10.00;64.80;;;;;;5393687;26;20343;-60
2024/04/21 05:30:40;;;;;;;1.23;1.13;;;9.80;66.10;;;;;;5396430;26;21263;-60
2024/04/21 05:33:06;;;;;;;2.50;1.37;;;9.80;66.10;;;;;;5400614;26;20234;-60
2024/04/21 05:35:32;;;;;;;1.30;1.20;;;9.90;65.90;;;;;;5401298;26;20338;-58
2024/04/21 05:37:58;;;;;;;5.07;1.40;;;10.00;64.30;;;;;;5397954;26;20334;-60
2024/04/21 05:40:24;;;;;;;2.87;1.60;;;10.10;65.20;;;;;;5396131;26;20284;-59
2024/04/21 05:42:49;;;;;;;3.27;1.37;;;10.40;66.50;;;;;;5402854;26;20464;-59
2024/04/21 05:45:15;;;;;;;2.20;1.60;;;10.60;63.80;;;;;;5398256;26;20582;-59
2024/04/21 05:47:40;;;;;;;3.63;1.73;;;10.70;62.30;;;;;;5404380;26;20237;-60
2024/04/21 05:50:07;;;;;;;1.50;1.37;;;10.60;61.70;;;;;;5396065;26;20276;-60
2024/04/21 05:52:33;;;;;;;1.80;1.70;;;10.70;61.90;;;;;;5394812;26;20241;-60
2024/04/21 05:54:59;;;;;;;2.83;1.70;;;10.70;61.00;;;;;;5403342;26;20535;-61
2024/04/21 05:57:24;;;;;;;2.10;1.77;;;10.90;61.20;;;;;;5400681;26;20475;-59
2024/04/21 05:59:50;;;;;;;4.90;1.50;;;10.80;60.10;;;;;;5392784;26;20289;-58
2024/04/21 06:02:16;;;;;;;2.30;1.30;;;10.70;60.00;;;;;;5400125;26;20241;-60
2024/04/21 06:04:41;;;;;;;5.40;1.40;;;10.60;60.00;;;;;;5397812;26;20344;-59
2024/04/21 06:07:07;;;;;;;3.13;1.80;;;10.50;60.50;;;;;;5396270;26;20242;-60
2024/04/21 06:09:35;;;;;;;2.80;1.90;;;10.50;60.70;;;;;;5398452;26;20366;-58
2024/04/21 06:12:01;;;;;;;1.40;1.30;;;10.40;60.70;;;;;;5406203;26;20791;-60
2024/04/21 06:14:27;;;;;;;3.63;2.03;;;10.60;60.70;;;;;;5409849;26;21010;-60
2024/04/21 06:16:52;;;;;;;2.80;1.40;;;10.50;60.50;;;;;;5411997;26;20480;-59
2024/04/21 06:19:18;;;;;;;4.67;1.60;;;10.50;60.90;;;;;;5393428;26;20477;-60
2024/04/21 06:21:44;;;;;;;7.10;1.70;;;10.60;61.20;;;;;;5400896;26;20237;-59
2024/04/21 06:24:09;;;;;;;3.10;1.23;;;10.50;62.50;;;;;;5402787;26;20725;-57
2024/04/21 06:26:35;;;;;;;4.20;1.90;;;10.50;62.00;;;;;;5401948;26;20246;-60
2024/04/21 06:29:01;;;;;;;2.67;2.20;;;10.50;62.40;;;;;;5406626;26;20238;-60
2024/04/21 06:31:26;;;;;;;4.43;2.00;;;10.60;62.40;;;;;;5392211;26;20276;-60
2024/04/21 06:33:52;;;;;;;3.80;2.80;;;10.60;62.00;;;;;;5398550;26;20230;-59
2024/04/21 06:36:17;;;;;;;3.10;2.10;;;10.60;61.80;;;;;;5393723;26;20285;-60
2024/04/21 06:38:43;;;;;;;2.77;1.97;;;10.50;62.10;;;;;;5408551;26;20241;-59
2024/04/21 06:41:10;;;;;;;2.43;2.20;;;10.30;62.40;;;;;;5408757;26;20246;-60
2024/04/21 06:43:36;;;;;;;2.00;1.83;;;10.40;63.40;;;;;;5399347;26;20575;-60
2024/04/21 06:46:01;;;;;;;6.23;2.37;;;10.20;62.80;;;;;;5405760;26;20471;-61
2024/04/21 06:48:27;;;;;;;3.67;1.70;;;10.10;62.90;;;;;;5399021;26;20557;-60
2024/04/21 06:50:52;;;;;;;2.20;1.70;;;10.10;63.00;;;;;;5409901;26;20280;-59
2024/04/21 06:53:19;;;;;;;3.77;1.93;;;10.30;62.60;;;;;;5402418;26;20254;-60
2024/04/21 06:55:45;;;;;;;3.03;2.00;;;10.40;62.60;;;;;;5407417;26;20233;-60
2024/04/21 06:58:10;;;;;;;7.03;2.13;;;10.40;62.50;;;;;;5394836;26;20543;-59
2024/04/21 07:00:36;;;;;;;2.50;2.30;;;10.40;62.80;;;;;;5404025;26;20246;-60
2024/04/21 07:03:01;;;;;;;5.50;3.30;;;10.50;63.20;;;;;;5399673;26;20512;-60
2024/04/21 07:05:27;;;;;;;4.37;4.03;;;10.50;62.70;;;;;;5411375;26;20237;-61
2024/04/21 07:07:52;;;;;;;5.50;2.37;;;10.40;62.80;;;;;;5407699;26;20288;-59
2024/04/21 07:10:18;;;;;;;6.03;2.47;;;10.60;62.70;;;;;;5395490;26;20243;-59
2024/04/21 07:12:44;;;;;;;4.30;2.50;;;10.70;62.20;;;;;;5393500;26;20719;-60
2024/04/21 07:15:09;;;;;;;8.37;2.70;;;10.70;61.90;;;;;;5396038;26;20337;-60
2024/04/21 07:17:35;;;;;;;10.50;3.50;;;10.60;61.30;;;;;;5409961;26;20637;-60
2024/04/21 07:20:01;;;;;;;9.57;5.90;;;10.60;61.80;;;;;;5406158;26;20335;-59
2024/04/21 07:22:26;;;;;;;6.17;3.83;;;10.60;62.00;;;;;;5398889;26;20243;-60
2024/04/21 07:24:52;;;;;;;4.30;2.93;;;10.60;62.20;;;;;;5399720;26;20241;-60
2024/04/21 07:27:17;;;;;;;4.17;2.63;;;10.40;61.20;;;;;;5398206;26;20330;-60
2024/04/21 07:29:43;;;;;;;5.80;2.50;;;10.30;61.00;;;;;;5396677;26;20647;-59
2024/04/21 07:32:08;;;;;;;5.00;2.67;;;10.10;61.40;;;;;;5395271;26;20268;-59
2024/04/21 07:34:34;;;;;;;5.03;2.10;;;10.30;62.00;;;;;;5401352;26;20238;-60
2024/04/21 07:36:59;;;;;;;3.40;1.80;;;10.30;62.50;;;;;;5403056;26;20812;-59
2024/04/21 07:39:27;;;;;;;3.67;1.70;;;10.30;63.00;;;;;;5400989;26;20241;-61
2024/04/21 07:41:53;;;;;;;3.33;1.93;;;10.20;62.90;;;;;;5400385;26;20245;-60
2024/04/21 07:44:18;;;;;;;4.23;1.90;;;10.30;62.90;;;;;;5394532;26;20517;-60
2024/04/21 07:46:44;;;;;;;7.87;2.07;;;10.40;62.10;;;;;;5403248;26;20288;-58
2024/04/21 07:49:10;;;;;;;3.70;2.17;;;10.30;61.90;;;;;;5399710;26;20230;-60
2024/04/21 07:51:35;;;;;;;3.30;2.70;;;10.30;62.30;;;;;;5397273;26;20238;-58
2024/04/21 07:54:01;;;;;;;2.70;2.27;;;10.20;62.30;;;;;;5409444;26;20276;-59
2024/04/21 07:56:26;;;;;;;6.57;2.33;;;10.30;62.70;;;;;;5393952;26;20227;-59
2024/04/21 07:58:52;;;;;;;3.30;1.57;;;10.20;62.00;;;;;;5395490;26;20237;-60
2024/04/21 08:01:18;;;;;;;5.97;2.07;;;10.20;61.60;;;;;;5401901;26;20246;-60
2024/04/21 08:03:43;;;;;;;6.67;2.10;;;10.10;61.90;;;;;;5405722;26;20579;-60
2024/04/21 08:06:09;;;;;;;6.60;1.97;;;10.30;61.40;;;;;;5399104;26;20245;-58
2024/04/21 08:08:34;;;;;;;5.30;2.00;;;10.50;61.10;;;;;;5407730;26;20258;-60
2024/04/21 08:11:04;;;;;;;8.63;2.97;;;10.50;60.60;;;;;;5405854;26;20300;-60
2024/04/21 08:13:30;;;;;;;8.63;1.87;;;10.70;60.50;;;;;;5401591;26;20237;-60
2024/04/21 08:15:58;;;;;;;3.40;2.10;;;10.80;60.10;;;;;;5413166;26;20523;-58
2024/04/21 08:18:24;;;;;;;2.80;1.90;;;10.90;59.90;;;;;;5404246;26;20280;-58
2024/04/21 08:20:50;;;;;;;5.37;2.30;;;11.00;59.70;;;;;;5399939;26;20467;-60
2024/04/21 08:23:16;;;;;;;5.07;1.97;;;11.00;59.60;;;;;;5402494;26;20469;-59
2024/04/21 08:25:44;;;;;;;8.10;2.10;;;11.10;59.90;;;;;;5395874;26;20292;-61
2024/04/21 08:28:10;;;;;;;3.90;1.80;;;10.90;60.40;;;;;;5402394;26;20475;-60
2024/04/21 08:30:36;;;;;;;5.10;1.90;;;11.00;60.30;;;;;;5402901;26;20470;-60
2024/04/21 08:33:01;;;;;;;5.90;1.73;;;11.00;59.60;;;;;;5414855;26;20284;-60
2024/04/21 08:35:27;;;;;;;3.47;1.90;;;11.20;59.70;;;;;;5404596;26;20317;-59
2024/04/21 08:37:52;;;;;;;4.77;2.10;;;11.30;59.60;;;;;;5400145;26;20242;-60
2024/04/21 08:40:19;;;;;;;3.70;1.77;;;11.40;59.50;;;;;;5403532;26;20796;-61
2024/04/21 08:42:45;;;;;;;4.57;1.67;;;11.50;59.30;;;;;;5401064;26;20287;-60
2024/04/21 08:45:11;;;;;;;2.67;1.60;;;11.60;58.90;;;;;;5406842;26;20810;-60
2024/04/21 08:47:38;;;;;;;5.77;2.53;;;11.60;58.30;;;;;;5398419;26;20523;-60
2024/04/21 08:50:05;;;;;;;5.77;1.87;;;11.60;58.20;;;;;;5404226;26;20471;-60
2024/04/21 08:52:32;;;;;;;7.57;2.30;;;11.70;58.10;;;;;;5403822;26;20527;-62
2024/04/21 08:54:59;;;;;;;3.50;1.50;;;11.80;58.00;;;;;;5398847;26;20588;-60
2024/04/21 08:57:26;;;;;;;4.90;2.07;;;11.90;57.70;;;;;;5393508;26;20598;-60
2024/04/21 08:59:57;;;;;;;5.60;1.90;;;11.90;57.80;;;;;;5403486;26;20477;-60
2024/04/21 09:02:23;;;;;;;4.50;2.23;;;12.00;57.80;;;;;;5408018;26;20519;-60
2024/04/21 09:04:49;;;;;;;5.40;2.00;;;12.00;58.10;;;;;;5397429;26;20869;-60
2024/04/21 09:07:16;;;;;;;4.27;1.73;;;11.80;57.10;;;;;;5409094;26;20459;-61
2024/04/21 09:09:45;;;;;;;11.13;2.60;;;11.70;56.70;;;;;;5409613;26;20347;-60
2024/04/21 09:12:12;;;;;;;3.40;1.80;;;11.70;56.70;;;;;;5404254;26;21177;-60
2024/04/21 09:14:42;;;;;;;3.63;1.97;;;11.60;57.00;;;;;;5410992;26;20452;-59
2024/04/21 09:17:07;;;;;;;3.80;2.03;;;11.50;56.70;;;;;;5401646;26;21100;-60
2024/04/21 09:19:33;;;;;;;5.03;1.80;;;11.50;56.70;;;;;;5408300;26;20470;-58
2024/04/21 09:21:58;;;;;;;4.07;1.80;;;11.40;56.10;;;;;;5410065;26;21708;-60
2024/04/21 09:24:24;;;;;;;4.90;1.80;;;11.40;56.80;;;;;;5404508;26;20238;-58
2024/04/21 09:26:50;;;;;;;7.33;2.10;;;11.50;56.80;;;;;;5405743;26;20237;-60
2024/04/21 09:29:15;;;;;;;8.03;2.17;;;11.60;56.60;;;;;;5404801;26;20423;-61
2024/04/21 09:31:42;;;;;;;3.33;1.90;;;11.80;57.10;;;;;;5408398;26;20740;-60
2024/04/21 09:34:07;;;;;;;5.83;1.90;;;11.80;57.10;;;;;;5400901;26;20250;-60
2024/04/21 09:36:33;;;;;;;5.60;1.93;;;11.80;56.70;;;;;;5409991;26;20523;-58
2024/04/21 09:39:00;;;;;;;13.23;3.90;;;11.90;56.60;;;;;;5403160;26;20226;-60
2024/04/21 09:41:27;;;;;;;6.20;2.70;;;12.10;56.60;;;;;;5395660;26;20471;-58
2024/04/21 09:43:54;;;;;;;3.03;1.70;;;12.20;56.10;;;;;;5412754;26;20506;-59
2024/04/21 09:46:20;;;;;;;5.20;1.40;;;12.20;55.20;;;;;;5408543;26;20464;-60
2024/04/21 09:48:50;;;;;;;4.77;1.70;;;12.30;54.80;;;;;;5411412;26;20526;-60
2024/04/21 09:51:16;;;;;;;2.93;1.30;;;12.40;55.10;;;;;;5404667;26;20277;-59
2024/04/21 09:53:45;;;;;;;1.77;1.50;;;12.50;55.00;;;;;;5400803;26;20487;-59
2024/04/21 09:56:18;;;;;;;5.90;1.87;;;12.70;54.80;;;;;;5396802;26;20579;-60
2024/04/21 09:58:47;;;;;;;5.77;2.00;;;12.70;54.20;;;;;;5411255;26;20531;-59
2024/04/21 10:01:24;;;;;;;1.70;1.60;;;12.60;52.80;;;;;;5399167;26;20491;-59
2024/04/21 10:03:55;;;;;;;7.00;1.80;;;12.60;53.90;;;;;;5406900;26;21363;-58
2024/04/21 10:06:21;;;;;;;2.17;1.40;;;12.80;54.90;;;;;;5412789;26;20479;-58
2024/04/21 10:08:48;;;;;;;4.10;1.47;;;12.90;53.50;;;;;;5409933;26;20811;-60
2024/04/21 10:11:14;;;;;;;3.50;1.50;;;12.80;52.40;;;;;;5420053;26;20487;-56
2024/04/21 10:13:39;;;;;;;2.63;1.60;;;12.80;52.90;;;;;;5402806;26;20932;-60
2024/04/21 10:16:05;;;;;;;2.47;1.40;;;12.80;51.40;;;;;;5402817;26;20790;-59
2024/04/21 10:18:31;;;;;;;3.33;1.70;;;12.90;52.20;;;;;;5399478;26;20237;-59
2024/04/21 10:20:56;;;;;;;6.00;1.57;;;13.00;52.50;;;;;;5402250;26;20238;-59
2024/04/21 10:23:22;;;;;;;6.07;1.80;;;13.00;52.40;;;;;;5408248;26;20242;-60
2024/04/21 10:25:48;;;;;;;2.83;1.10;;;13.20;52.50;;;;;;5397665;26;20238;-59
2024/04/21 10:28:24;;;;;;;3.80;2.40;;;13.20;51.50;;;;;;5405161;26;20253;-60
2024/04/21 10:30:50;;;;;;;6.33;1.37;;;13.10;50.20;;;;;;5393434;26;20229;-59
2024/04/21 10:33:15;;;;;;;3.27;1.30;;;13.10;50.70;;;;;;5400412;26;20598;-60
2024/04/21 10:35:42;;;;;;;3.97;1.50;;;13.20;50.00;;;;;;5395030;26;20331;-57
2024/04/21 10:38:11;;;;;;;3.83;1.10;;;13.10;49.20;;;;;;5408871;26;20291;-57
2024/04/21 10:40:46;;;;;;;3.20;1.50;;;13.20;49.90;;;;;;5396036;26;20590;-59
2024/04/21 10:43:14;;;;;;;2.50;1.57;;;13.40;50.90;;;;;;5409873;26;20475;-59
2024/04/21 10:45:39;;;;;;;5.13;2.27;;;13.40;50.90;;;;;;5399987;26;20592;-58
2024/04/21 10:48:06;;;;;;;3.73;2.03;;;13.60;50.20;;;;;;5398578;26;20906;-59
2024/04/21 10:50:37;;;;;;;2.60;2.40;;;13.80;51.10;;;;;;5403105;26;20238;-59
2024/04/21 10:53:04;;;;;;;3.17;1.37;;;13.90;51.70;;;;;;5402367;26;20605;-60
2024/04/21 10:55:32;;;;;;;2.90;1.77;;;14.20;48.50;;;;;;5400069;26;20477;-59
2024/04/21 10:58:02;;;;;;;4.87;1.90;;;14.40;50.60;;;;;;5400164;26;20579;-56
2024/04/21 11:00:28;;;;;;;2.00;1.23;;;14.80;51.20;;;;;;5403581;26;20550;-59
2024/04/21 11:02:54;;;;;;;3.67;1.83;;;14.90;49.60;;;;;;5403655;26;20467;-58
2024/04/21 11:05:26;;;;;;;2.80;1.10;;;15.10;49.50;;;;;;5402463;26;20463;-60
2024/04/21 11:07:51;;;;;;;2.50;1.27;;;15.20;48.60;;;;;;5395876;26;20479;-59
2024/04/21 11:10:17;;;;;;;4.60;1.50;;;15.40;47.50;;;;;;5401995;26;20527;-59
2024/04/21 11:12:43;;;;;;;1.97;1.30;;;15.40;46.90;;;;;;5407602;26;20237;-59
2024/04/21 11:15:09;;;;;;;4.23;2.00;;;15.30;45.80;;;;;;5395169;26;20238;-57
2024/04/21 11:17:35;;;;;;;2.27;1.00;;;15.20;45.70;;;;;;5408657;26;20483;-58
2024/04/21 11:20:00;;;;;;;2.23;1.33;;;14.70;45.70;;;;;;5400611;26;20254;-59
2024/04/21 11:22:26;;;;;;;3.53;1.33;;;14.60;46.10;;;;;;5397673;26;20828;-59
2024/04/21 11:24:53;;;;;;;4.40;1.20;;;14.50;46.80;;;;;;5385326;26;20243;-60
2024/04/21 11:27:18;;;;;;;2.50;1.30;;;14.40;46.40;;;;;;5408071;26;21136;-58
2024/04/21 11:29:47;;;;;;;5.43;1.87;;;14.40;48.50;;;;;;5404317;26;20519;-58
2024/04/21 11:32:12;;;;;;;3.33;1.40;;;14.50;48.80;;;;;;5406605;26;20238;-59
2024/04/21 11:34:38;;;;;;;3.90;1.33;;;14.70;47.70;;;;;;5399359;26;21136;-60
2024/04/21 11:37:11;;;;;;;2.70;1.10;;;15.10;46.90;;;;;;5405925;26;20241;-58
2024/04/21 11:39:36;;;;;;;3.60;1.10;;;15.40;44.40;;;;;;5401351;26;20241;-60
2024/04/21 11:42:03;;;;;;;1.53;1.10;;;15.70;43.30;;;;;;5398200;26;20481;-59
2024/04/21 11:44:28;;;;;;;1.70;1.30;;;15.90;41.70;;;;;;5403110;26;20257;-60
2024/04/21 11:46:57;;;;;;;1.33;1.23;;;16.00;42.10;;;;;;5400900;26;20520;-56
2024/04/21 11:49:22;;;;;;;2.20;1.00;;;16.10;41.20;;;;;;5394442;26;20237;-60
2024/04/21 11:51:48;;;;;;;3.27;1.60;;;15.80;40.10;;;;;;5401250;26;20460;-59
2024/04/21 11:54:13;;;;;;;3.50;1.53;;;16.00;41.30;;;;;;5390695;26;20297;-60
2024/04/21 11:56:39;;;;;;;3.00;1.60;;;16.10;42.30;;;;;;5385661;26;20250;-59
2024/04/21 11:59:05;;;;;;;3.40;1.30;;;16.00;42.20;;;;;;5401983;26;20226;-60
2024/04/21 12:01:30;;;;;;;1.33;1.00;;;16.00;43.20;;;;;;5397660;26;20277;-59
2024/04/21 12:03:56;;;;;;;1.30;1.20;;;16.00;42.80;;;;;;5401985;26;20252;-58
2024/04/21 12:06:23;;;;;;;1.43;1.17;;;16.00;41.60;;;;;;5391260;26;20246;-58
2024/04/21 12:08:49;;;;;;;2.37;1.30;;;15.90;42.80;;;;;;5398780;26;20744;-58
2024/04/21 12:11:14;;;;;;;3.60;1.63;;;15.90;42.10;;;;;;5393360;26;20529;-60
2024/04/21 12:13:41;;;;;;;3.40;1.27;;;15.90;41.40;;;;;;5365318;26;20834;-58
2024/04/21 12:16:07;;;;;;;5.23;1.43;;;15.80;41.50;;;;;;5396968;26;20332;-61
2024/04/21 12:18:33;;;;;;;2.40;1.40;;;15.70;41.60;;;;;;5383083;26;20483;-59
2024/04/21 12:20:58;;;;;;;3.07;1.30;;;15.80;41.60;;;;;;5399045;26;20242;-60
2024/04/21 12:23:24;;;;;;;6.23;1.30;;;15.90;42.00;;;;;;5404390;26;20237;-58
2024/04/21 12:25:49;;;;;;;3.53;1.60;;;15.90;43.20;;;;;;5391868;26;20227;-60
2024/04/21 12:28:15;;;;;;;2.33;1.13;;;15.90;43.40;;;;;;5400318;26;20285;-58
2024/04/21 12:30:40;;;;;;;2.60;1.53;;;15.90;41.80;;;;;;5391555;26;20247;-59
2024/04/21 12:33:06;;;;;;;2.17;1.97;;;15.80;43.00;;;;;;5398668;26;20238;-60
2024/04/21 12:35:33;;;;;;;3.83;1.33;;;15.80;42.70;;;;;;5398879;26;20289;-59
2024/04/21 12:37:58;;;;;;;4.30;1.53;;;16.00;43.10;;;;;;5404802;26;20299;-60
2024/04/21 12:40:24;;;;;;;1.90;1.20;;;16.00;42.70;;;;;;5392383;26;20550;-61
2024/04/21 12:42:49;;;;;;;2.93;1.57;;;15.80;43.10;;;;;;5404632;26;20238;-60